sensor_id;sensor_type;location;lat;lon;timestamp;P1;durP1;ratioP1;P2;durP2;ratioP2
9761;SDS011;4920;49.594;11.022;2023-04-25T00:02:37;6.10;;;4.60;;
9761;SDS011;4920;49.594;11.022;2023-04-25T00:05:06;4.80;;;4.30;;
9761;SDS011;4920;49.594;11.022;2023-04-25T00:07:37;5.63;;;4.40;;
9761;SDS011;4920;49.594;11.022;2023-04-25T00:10:06;5.50;;;4.30;;
9761;SDS011;4920;49.594;11.022;2023-04-25T00:12:37;5.13;;;4.57;;
9761;SDS011;4920;49.594;11.022;2023-04-25T00:15:06;4.90;;;4.17;;
9761;SDS011;4920;49.594;11.022;2023-04-25T00:17:36;5.43;;;4.63;;
9761;SDS011;4920;49.594;11.022;2023-04-25T00:20:05;4.80;;;4.33;;
9761;SDS011;4920;49.594;11.022;2023-04-25T00:22:37;4.97;;;4.47;;
9761;SDS011;4920;49.594;11.022;2023-04-25T00:25:06;5.40;;;4.60;;
9761;SDS011;4920;49.594;11.022;2023-04-25T00:27:35;4.80;;;4.30;;
9761;SDS011;4920;49.594;11.022;2023-04-25T00:30:06;5.37;;;4.23;;
9761;SDS011;4920;49.594;11.022;2023-04-25T00:32:35;5.03;;;4.40;;
9761;SDS011;4920;49.594;11.022;2023-04-25T00:35:04;4.90;;;3.90;;
9761;SDS011;4920;49.594;11.022;2023-04-25T00:37:33;6.07;;;4.50;;
9761;SDS011;4920;49.594;11.022;2023-04-25T00:40:03;4.37;;;3.97;;
9761;SDS011;4920;49.594;11.022;2023-04-25T00:42:34;6.73;;;5.00;;
9761;SDS011;4920;49.594;11.022;2023-04-25T00:45:05;5.47;;;4.80;;
9761;SDS011;4920;49.594;11.022;2023-04-25T00:47:35;5.77;;;4.30;;
9761;SDS011;4920;49.594;11.022;2023-04-25T00:50:04;6.30;;;4.53;;
9761;SDS011;4920;49.594;11.022;2023-04-25T00:52:34;7.33;;;4.57;;
9761;SDS011;4920;49.594;11.022;2023-04-25T00:55:05;5.30;;;4.57;;
9761;SDS011;4920;49.594;11.022;2023-04-25T00:57:34;7.23;;;5.00;;
9761;SDS011;4920;49.594;11.022;2023-04-25T01:00:03;6.27;;;4.73;;
9761;SDS011;4920;49.594;11.022;2023-04-25T01:02:33;5.87;;;4.50;;
9761;SDS011;4920;49.594;11.022;2023-04-25T01:05:03;6.40;;;4.60;;
9761;SDS011;4920;49.594;11.022;2023-04-25T01:07:33;6.33;;;4.17;;
9761;SDS011;4920;49.594;11.022;2023-04-25T01:10:02;5.90;;;4.00;;
9761;SDS011;4920;49.594;11.022;2023-04-25T01:12:33;5.57;;;4.47;;
9761;SDS011;4920;49.594;11.022;2023-04-25T01:15:02;6.37;;;4.27;;
9761;SDS011;4920;49.594;11.022;2023-04-25T01:17:31;5.47;;;4.30;;
9761;SDS011;4920;49.594;11.022;2023-04-25T01:20:00;4.90;;;4.20;;
9761;SDS011;4920;49.594;11.022;2023-04-25T01:22:33;4.70;;;4.20;;
9761;SDS011;4920;49.594;11.022;2023-04-25T01:25:02;5.23;;;4.13;;
9761;SDS011;4920;49.594;11.022;2023-04-25T01:27:31;5.67;;;4.30;;
9761;SDS011;4920;49.594;11.022;2023-04-25T01:30:00;4.90;;;3.80;;
9761;SDS011;4920;49.594;11.022;2023-04-25T01:32:30;4.53;;;4.03;;
9761;SDS011;4920;49.594;11.022;2023-04-25T01:35:05;4.90;;;4.03;;
9761;SDS011;4920;49.594;11.022;2023-04-25T01:37:37;4.23;;;3.70;;
9761;SDS011;4920;49.594;11.022;2023-04-25T01:40:07;5.80;;;4.00;;
9761;SDS011;4920;49.594;11.022;2023-04-25T01:42:39;4.93;;;4.10;;
9761;SDS011;4920;49.594;11.022;2023-04-25T01:45:10;5.60;;;4.50;;
9761;SDS011;4920;49.594;11.022;2023-04-25T01:47:39;4.83;;;4.33;;
9761;SDS011;4920;49.594;11.022;2023-04-25T01:50:09;5.40;;;4.17;;
9761;SDS011;4920;49.594;11.022;2023-04-25T01:52:40;5.07;;;4.30;;
9761;SDS011;4920;49.594;11.022;2023-04-25T01:55:10;4.73;;;4.23;;
9761;SDS011;4920;49.594;11.022;2023-04-25T01:57:47;6.03;;;4.37;;
9761;SDS011;4920;49.594;11.022;2023-04-25T02:00:18;5.87;;;4.20;;
9761;SDS011;4920;49.594;11.022;2023-04-25T02:02:47;6.17;;;4.30;;
9761;SDS011;4920;49.594;11.022;2023-04-25T02:05:26;6.43;;;4.70;;
9761;SDS011;4920;49.594;11.022;2023-04-25T02:07:57;5.20;;;4.70;;
9761;SDS011;4920;49.594;11.022;2023-04-25T02:10:26;4.80;;;4.20;;
9761;SDS011;4920;49.594;11.022;2023-04-25T02:13:06;4.90;;;4.30;;
9761;SDS011;4920;49.594;11.022;2023-04-25T02:15:55;4.70;;;4.20;;
9761;SDS011;4920;49.594;11.022;2023-04-25T02:18:23;5.63;;;4.30;;
9761;SDS011;4920;49.594;11.022;2023-04-25T02:20:52;5.33;;;4.60;;
9761;SDS011;4920;49.594;11.022;2023-04-25T02:23:23;5.57;;;4.93;;
9761;SDS011;4920;49.594;11.022;2023-04-25T02:25:51;6.13;;;4.77;;
9761;SDS011;4920;49.594;11.022;2023-04-25T02:28:22;6.13;;;4.67;;
9761;SDS011;4920;49.594;11.022;2023-04-25T02:30:51;6.33;;;4.57;;
9761;SDS011;4920;49.594;11.022;2023-04-25T02:33:20;5.73;;;4.47;;
9761;SDS011;4920;49.594;11.022;2023-04-25T02:35:49;5.20;;;4.33;;
9761;SDS011;4920;49.594;11.022;2023-04-25T02:38:21;5.30;;;4.60;;
9761;SDS011;4920;49.594;11.022;2023-04-25T02:40:51;5.93;;;4.77;;
9761;SDS011;4920;49.594;11.022;2023-04-25T02:43:20;7.07;;;4.70;;
9761;SDS011;4920;49.594;11.022;2023-04-25T02:45:51;5.70;;;4.47;;
9761;SDS011;4920;49.594;11.022;2023-04-25T02:48:19;6.43;;;5.03;;
9761;SDS011;4920;49.594;11.022;2023-04-25T02:50:48;5.70;;;4.77;;
9761;SDS011;4920;49.594;11.022;2023-04-25T02:53:17;6.80;;;4.83;;
9761;SDS011;4920;49.594;11.022;2023-04-25T02:55:50;7.23;;;4.77;;
9761;SDS011;4920;49.594;11.022;2023-04-25T02:58:19;6.30;;;4.83;;
9761;SDS011;4920;49.594;11.022;2023-04-25T03:00:51;6.10;;;5.17;;
9761;SDS011;4920;49.594;11.022;2023-04-25T03:03:19;6.33;;;4.83;;
9761;SDS011;4920;49.594;11.022;2023-04-25T03:05:50;6.00;;;5.17;;
9761;SDS011;4920;49.594;11.022;2023-04-25T03:08:24;5.93;;;5.33;;
9761;SDS011;4920;49.594;11.022;2023-04-25T03:10:57;6.93;;;5.47;;
9761;SDS011;4920;49.594;11.022;2023-04-25T03:13:26;6.63;;;5.60;;
9761;SDS011;4920;49.594;11.022;2023-04-25T03:15:56;6.00;;;5.30;;
9761;SDS011;4920;49.594;11.022;2023-04-25T03:18:25;7.33;;;5.10;;
9761;SDS011;4920;49.594;11.022;2023-04-25T03:20:54;6.10;;;5.43;;
9761;SDS011;4920;49.594;11.022;2023-04-25T03:23:23;6.50;;;5.27;;
9761;SDS011;4920;49.594;11.022;2023-04-25T03:25:51;7.27;;;5.60;;
9761;SDS011;4920;49.594;11.022;2023-04-25T03:28:21;7.13;;;5.47;;
9761;SDS011;4920;49.594;11.022;2023-04-25T03:30:50;7.33;;;5.20;;
9761;SDS011;4920;49.594;11.022;2023-04-25T03:33:18;7.57;;;5.50;;
9761;SDS011;4920;49.594;11.022;2023-04-25T03:35:47;9.23;;;5.53;;
9761;SDS011;4920;49.594;11.022;2023-04-25T03:38:16;6.63;;;5.60;;
9761;SDS011;4920;49.594;11.022;2023-04-25T03:40:45;7.93;;;5.43;;
9761;SDS011;4920;49.594;11.022;2023-04-25T03:43:34;7.80;;;5.87;;
9761;SDS011;4920;49.594;11.022;2023-04-25T03:46:06;7.67;;;6.30;;
9761;SDS011;4920;49.594;11.022;2023-04-25T03:48:36;5.77;;;5.17;;
9761;SDS011;4920;49.594;11.022;2023-04-25T03:51:06;7.27;;;5.90;;
9761;SDS011;4920;49.594;11.022;2023-04-25T03:53:38;7.33;;;5.47;;
9761;SDS011;4920;49.594;11.022;2023-04-25T03:56:32;7.30;;;5.70;;
9761;SDS011;4920;49.594;11.022;2023-04-25T03:59:13;7.80;;;5.87;;
9761;SDS011;4920;49.594;11.022;2023-04-25T04:01:42;6.73;;;5.70;;
9761;SDS011;4920;49.594;11.022;2023-04-25T04:04:10;7.50;;;6.10;;
9761;SDS011;4920;49.594;11.022;2023-04-25T04:06:40;7.30;;;5.83;;
9761;SDS011;4920;49.594;11.022;2023-04-25T04:09:14;8.20;;;6.23;;
9761;SDS011;4920;49.594;11.022;2023-04-25T04:11:44;8.23;;;5.80;;
9761;SDS011;4920;49.594;11.022;2023-04-25T04:14:14;7.50;;;6.20;;
9761;SDS011;4920;49.594;11.022;2023-04-25T04:16:45;9.57;;;6.50;;
9761;SDS011;4920;49.594;11.022;2023-04-25T04:19:14;7.00;;;6.23;;
9761;SDS011;4920;49.594;11.022;2023-04-25T04:21:49;9.80;;;6.37;;
9761;SDS011;4920;49.594;11.022;2023-04-25T04:24:18;8.53;;;6.10;;
9761;SDS011;4920;49.594;11.022;2023-04-25T04:26:52;11.53;;;6.77;;
9761;SDS011;4920;49.594;11.022;2023-04-25T04:29:36;9.10;;;6.60;;
9761;SDS011;4920;49.594;11.022;2023-04-25T04:32:10;9.37;;;6.27;;
9761;SDS011;4920;49.594;11.022;2023-04-25T04:34:41;7.90;;;6.47;;
9761;SDS011;4920;49.594;11.022;2023-04-25T04:37:13;8.57;;;6.47;;
9761;SDS011;4920;49.594;11.022;2023-04-25T04:39:42;7.40;;;6.23;;
9761;SDS011;4920;49.594;11.022;2023-04-25T04:42:22;8.83;;;6.13;;
9761;SDS011;4920;49.594;11.022;2023-04-25T04:45:09;7.77;;;6.27;;
9761;SDS011;4920;49.594;11.022;2023-04-25T04:47:57;8.27;;;6.43;;
9761;SDS011;4920;49.594;11.022;2023-04-25T04:50:46;6.90;;;5.63;;
9761;SDS011;4920;49.594;11.022;2023-04-25T04:53:22;7.83;;;5.73;;
9761;SDS011;4920;49.594;11.022;2023-04-25T04:55:51;9.20;;;6.00;;
9761;SDS011;4920;49.594;11.022;2023-04-25T04:58:27;7.80;;;5.57;;
9761;SDS011;4920;49.594;11.022;2023-04-25T05:01:17;6.87;;;5.33;;
9761;SDS011;4920;49.594;11.022;2023-04-25T05:03:55;5.93;;;5.33;;
9761;SDS011;4920;49.594;11.022;2023-04-25T05:06:46;5.80;;;5.20;;
9761;SDS011;4920;49.594;11.022;2023-04-25T05:09:33;6.27;;;5.40;;
9761;SDS011;4920;49.594;11.022;2023-04-25T05:12:12;6.87;;;5.60;;
9761;SDS011;4920;49.594;11.022;2023-04-25T05:15:01;5.83;;;5.13;;
9761;SDS011;4920;49.594;11.022;2023-04-25T05:17:51;6.60;;;4.70;;
9761;SDS011;4920;49.594;11.022;2023-04-25T05:20:22;5.80;;;4.73;;
9761;SDS011;4920;49.594;11.022;2023-04-25T05:22:51;6.40;;;4.50;;
9761;SDS011;4920;49.594;11.022;2023-04-25T05:25:33;6.17;;;4.57;;
9761;SDS011;4920;49.594;11.022;2023-04-25T05:28:21;5.97;;;4.90;;
9761;SDS011;4920;49.594;11.022;2023-04-25T05:31:03;6.77;;;5.63;;
9761;SDS011;4920;49.594;11.022;2023-04-25T05:36:55;4.97;;;4.30;;
9761;SDS011;4920;49.594;11.022;2023-04-25T05:39:24;4.70;;;4.20;;
9761;SDS011;4920;49.594;11.022;2023-04-25T05:42:09;6.87;;;4.10;;
9761;SDS011;4920;49.594;11.022;2023-04-25T05:45:00;7.60;;;4.77;;
9761;SDS011;4920;49.594;11.022;2023-04-25T05:47:50;5.17;;;4.20;;
9761;SDS011;4920;49.594;11.022;2023-04-25T05:50:34;5.50;;;4.10;;
9761;SDS011;4920;49.594;11.022;2023-04-25T05:53:13;4.77;;;4.37;;
9761;SDS011;4920;49.594;11.022;2023-04-25T05:55:42;8.97;;;4.90;;
9761;SDS011;4920;49.594;11.022;2023-04-25T05:58:19;7.20;;;5.83;;
9761;SDS011;4920;49.594;11.022;2023-04-25T06:00:48;7.33;;;4.90;;
9761;SDS011;4920;49.594;11.022;2023-04-25T06:03:17;8.03;;;5.70;;
9761;SDS011;4920;49.594;11.022;2023-04-25T06:05:49;6.43;;;5.07;;
9761;SDS011;4920;49.594;11.022;2023-04-25T06:08:19;7.97;;;6.13;;
9761;SDS011;4920;49.594;11.022;2023-04-25T06:10:47;7.83;;;5.77;;
9761;SDS011;4920;49.594;11.022;2023-04-25T06:13:16;8.17;;;6.13;;
9761;SDS011;4920;49.594;11.022;2023-04-25T06:15:45;8.20;;;6.33;;
9761;SDS011;4920;49.594;11.022;2023-04-25T06:18:14;7.37;;;6.40;;
9761;SDS011;4920;49.594;11.022;2023-04-25T06:20:42;8.73;;;6.60;;
9761;SDS011;4920;49.594;11.022;2023-04-25T06:23:13;7.13;;;6.40;;
9761;SDS011;4920;49.594;11.022;2023-04-25T06:25:50;8.07;;;6.60;;
9761;SDS011;4920;49.594;11.022;2023-04-25T06:28:19;7.73;;;6.50;;
9761;SDS011;4920;49.594;11.022;2023-04-25T06:30:51;8.73;;;7.03;;
9761;SDS011;4920;49.594;11.022;2023-04-25T06:33:29;8.17;;;7.07;;
9761;SDS011;4920;49.594;11.022;2023-04-25T06:35:59;7.70;;;6.90;;
9761;SDS011;4920;49.594;11.022;2023-04-25T06:38:32;9.30;;;7.07;;
9761;SDS011;4920;49.594;11.022;2023-04-25T06:41:02;11.03;;;7.70;;
9761;SDS011;4920;49.594;11.022;2023-04-25T06:43:34;8.73;;;7.23;;
9761;SDS011;4920;49.594;11.022;2023-04-25T06:46:15;10.40;;;7.30;;
9761;SDS011;4920;49.594;11.022;2023-04-25T06:48:47;7.83;;;6.67;;
9761;SDS011;4920;49.594;11.022;2023-04-25T06:51:18;7.60;;;6.67;;
9761;SDS011;4920;49.594;11.022;2023-04-25T06:53:55;8.10;;;6.73;;
9761;SDS011;4920;49.594;11.022;2023-04-25T06:56:34;7.30;;;6.60;;
9761;SDS011;4920;49.594;11.022;2023-04-25T06:59:11;7.93;;;5.90;;
9761;SDS011;4920;49.594;11.022;2023-04-25T07:01:41;8.27;;;5.90;;
9761;SDS011;4920;49.594;11.022;2023-04-25T07:04:16;4.67;;;4.07;;
9761;SDS011;4920;49.594;11.022;2023-04-25T07:06:52;6.40;;;4.73;;
9761;SDS011;4920;49.594;11.022;2023-04-25T07:09:30;7.97;;;5.40;;
9761;SDS011;4920;49.594;11.022;2023-04-25T07:12:00;7.27;;;6.30;;
9761;SDS011;4920;49.594;11.022;2023-04-25T07:14:30;10.03;;;5.90;;
9761;SDS011;4920;49.594;11.022;2023-04-25T07:16:59;10.27;;;6.97;;
9761;SDS011;4920;49.594;11.022;2023-04-25T07:19:30;8.77;;;5.80;;
9761;SDS011;4920;49.594;11.022;2023-04-25T07:22:01;8.93;;;5.53;;
9761;SDS011;4920;49.594;11.022;2023-04-25T07:24:32;7.73;;;4.80;;
9761;SDS011;4920;49.594;11.022;2023-04-25T07:27:01;8.60;;;5.53;;
9761;SDS011;4920;49.594;11.022;2023-04-25T07:29:50;7.13;;;5.37;;
9761;SDS011;4920;49.594;11.022;2023-04-25T07:32:22;10.53;;;6.23;;
9761;SDS011;4920;49.594;11.022;2023-04-25T07:34:51;11.63;;;6.20;;
9761;SDS011;4920;49.594;11.022;2023-04-25T07:37:19;9.30;;;6.13;;
9761;SDS011;4920;49.594;11.022;2023-04-25T07:40:02;9.20;;;6.50;;
9761;SDS011;4920;49.594;11.022;2023-04-25T07:42:32;8.43;;;6.77;;
9761;SDS011;4920;49.594;11.022;2023-04-25T07:45:01;9.77;;;6.23;;
9761;SDS011;4920;49.594;11.022;2023-04-25T07:47:30;6.50;;;5.27;;
9761;SDS011;4920;49.594;11.022;2023-04-25T07:49:59;6.37;;;5.03;;
9761;SDS011;4920;49.594;11.022;2023-04-25T07:52:29;9.30;;;5.43;;
9761;SDS011;4920;49.594;11.022;2023-04-25T07:55:07;6.47;;;4.80;;
9761;SDS011;4920;49.594;11.022;2023-04-25T07:57:48;6.23;;;4.77;;
9761;SDS011;4920;49.594;11.022;2023-04-25T08:00:17;6.17;;;4.73;;
9761;SDS011;4920;49.594;11.022;2023-04-25T08:02:52;10.73;;;6.20;;
9761;SDS011;4920;49.594;11.022;2023-04-25T08:05:21;8.87;;;4.93;;
9761;SDS011;4920;49.594;11.022;2023-04-25T08:07:58;7.47;;;4.90;;
9761;SDS011;4920;49.594;11.022;2023-04-25T08:10:30;7.00;;;4.70;;
9761;SDS011;4920;49.594;11.022;2023-04-25T08:12:59;6.47;;;4.70;;
9761;SDS011;4920;49.594;11.022;2023-04-25T08:15:28;7.47;;;5.00;;
9761;SDS011;4920;49.594;11.022;2023-04-25T08:17:57;5.97;;;4.47;;
9761;SDS011;4920;49.594;11.022;2023-04-25T08:20:26;7.17;;;4.80;;
9761;SDS011;4920;49.594;11.022;2023-04-25T08:22:57;7.23;;;4.90;;
9761;SDS011;4920;49.594;11.022;2023-04-25T08:25:41;8.37;;;5.00;;
9761;SDS011;4920;49.594;11.022;2023-04-25T08:28:12;7.30;;;5.23;;
9761;SDS011;4920;49.594;11.022;2023-04-25T08:30:42;8.13;;;5.33;;
9761;SDS011;4920;49.594;11.022;2023-04-25T08:33:13;9.53;;;5.60;;
9761;SDS011;4920;49.594;11.022;2023-04-25T08:35:54;6.20;;;5.53;;
9761;SDS011;4920;49.594;11.022;2023-04-25T08:38:24;7.90;;;5.60;;
9761;SDS011;4920;49.594;11.022;2023-04-25T08:40:54;7.87;;;5.60;;
9761;SDS011;4920;49.594;11.022;2023-04-25T08:43:25;7.83;;;5.90;;
9761;SDS011;4920;49.594;11.022;2023-04-25T08:45:54;8.37;;;6.33;;
9761;SDS011;4920;49.594;11.022;2023-04-25T08:48:37;6.50;;;5.80;;
9761;SDS011;4920;49.594;11.022;2023-04-25T08:51:08;7.63;;;6.13;;
9761;SDS011;4920;49.594;11.022;2023-04-25T08:53:44;9.27;;;6.37;;
9761;SDS011;4920;49.594;11.022;2023-04-25T08:56:21;6.63;;;5.50;;
9761;SDS011;4920;49.594;11.022;2023-04-25T08:58:50;7.73;;;5.80;;
9761;SDS011;4920;49.594;11.022;2023-04-25T09:01:20;8.50;;;5.93;;
9761;SDS011;4920;49.594;11.022;2023-04-25T09:03:52;10.00;;;5.90;;
9761;SDS011;4920;49.594;11.022;2023-04-25T09:06:21;7.53;;;5.85;;
9761;SDS011;4920;49.594;11.022;2023-04-25T09:08:52;7.40;;;5.00;;
9761;SDS011;4920;49.594;11.022;2023-04-25T09:11:23;8.57;;;5.00;;
9761;SDS011;4920;49.594;11.022;2023-04-25T09:13:54;7.93;;;5.00;;
9761;SDS011;4920;49.594;11.022;2023-04-25T09:17:00;7.97;;;4.93;;
9761;SDS011;4920;49.594;11.022;2023-04-25T09:19:36;6.13;;;5.00;;
9761;SDS011;4920;49.594;11.022;2023-04-25T09:22:16;5.82;;;4.75;;
9761;SDS011;4920;49.594;11.022;2023-04-25T09:24:48;6.53;;;3.97;;
9761;SDS011;4920;49.594;11.022;2023-04-25T09:27:21;5.00;;;3.80;;
9761;SDS011;4920;49.594;11.022;2023-04-25T09:30:00;5.05;;;4.28;;
9761;SDS011;4920;49.594;11.022;2023-04-25T09:32:48;5.10;;;4.30;;
9761;SDS011;4920;49.594;11.022;2023-04-25T09:38:40;8.30;;;4.68;;
9761;SDS011;4920;49.594;11.022;2023-04-25T09:41:31;5.75;;;3.90;;
9761;SDS011;4920;49.594;11.022;2023-04-25T09:44:02;4.57;;;3.60;;
9761;SDS011;4920;49.594;11.022;2023-04-25T09:49:55;4.32;;;2.80;;
9761;SDS011;4920;49.594;11.022;2023-04-25T09:52:25;4.25;;;2.50;;
9761;SDS011;4920;49.594;11.022;2023-04-25T09:55:07;3.50;;;2.33;;
9761;SDS011;4920;49.594;11.022;2023-04-25T09:57:36;3.73;;;2.73;;
9761;SDS011;4920;49.594;11.022;2023-04-25T10:00:08;5.80;;;2.67;;
9761;SDS011;4920;49.594;11.022;2023-04-25T10:02:42;4.88;;;2.97;;
9761;SDS011;4920;49.594;11.022;2023-04-25T10:05:25;3.93;;;2.60;;
9761;SDS011;4920;49.594;11.022;2023-04-25T10:07:55;4.93;;;2.40;;
9761;SDS011;4920;49.594;11.022;2023-04-25T10:10:25;4.23;;;2.10;;
9761;SDS011;4920;49.594;11.022;2023-04-25T10:12:57;3.03;;;1.83;;
9761;SDS011;4920;49.594;11.022;2023-04-25T10:19:22;3.97;;;2.00;;
9761;SDS011;4920;49.594;11.022;2023-04-25T10:21:52;3.50;;;2.10;;
9761;SDS011;4920;49.594;11.022;2023-04-25T10:24:25;3.58;;;2.10;;
9761;SDS011;4920;49.594;11.022;2023-04-25T10:26:55;4.57;;;2.10;;
9761;SDS011;4920;49.594;11.022;2023-04-25T10:29:25;3.65;;;2.00;;
9761;SDS011;4920;49.594;11.022;2023-04-25T10:31:55;3.22;;;2.28;;
9761;SDS011;4920;49.594;11.022;2023-04-25T10:34:37;4.47;;;2.40;;
9761;SDS011;4920;49.594;11.022;2023-04-25T10:37:09;3.95;;;2.20;;
9761;SDS011;4920;49.594;11.022;2023-04-25T10:39:39;4.32;;;2.30;;
9761;SDS011;4920;49.594;11.022;2023-04-25T10:42:08;3.03;;;2.20;;
9761;SDS011;4920;49.594;11.022;2023-04-25T10:44:39;4.55;;;2.30;;
9761;SDS011;4920;49.594;11.022;2023-04-25T10:47:07;3.83;;;1.90;;
9761;SDS011;4920;49.594;11.022;2023-04-25T10:49:42;3.83;;;2.10;;
9761;SDS011;4920;49.594;11.022;2023-04-25T10:52:12;5.50;;;2.35;;
9761;SDS011;4920;49.594;11.022;2023-04-25T10:54:48;4.20;;;2.38;;
9761;SDS011;4920;49.594;11.022;2023-04-25T10:57:26;4.25;;;2.40;;
9761;SDS011;4920;49.594;11.022;2023-04-25T10:59:59;3.47;;;2.40;;
9761;SDS011;4920;49.594;11.022;2023-04-25T11:02:36;3.75;;;2.17;;
9761;SDS011;4920;49.594;11.022;2023-04-25T11:05:08;3.88;;;1.73;;
9761;SDS011;4920;49.594;11.022;2023-04-25T11:07:38;2.30;;;1.63;;
9761;SDS011;4920;49.594;11.022;2023-04-25T11:10:25;2.10;;;1.90;;
9761;SDS011;4920;49.594;11.022;2023-04-25T11:12:54;4.93;;;2.20;;
9761;SDS011;4920;49.594;11.022;2023-04-25T11:15:23;2.53;;;1.83;;
9761;SDS011;4920;49.594;11.022;2023-04-25T11:17:52;3.92;;;2.13;;
9761;SDS011;4920;49.594;11.022;2023-04-25T11:20:24;3.00;;;2.05;;
9761;SDS011;4920;49.594;11.022;2023-04-25T11:22:57;3.17;;;1.80;;
9761;SDS011;4920;49.594;11.022;2023-04-25T11:25:27;3.30;;;2.00;;
9761;SDS011;4920;49.594;11.022;2023-04-25T11:27:57;2.63;;;1.97;;
9761;SDS011;4920;49.594;11.022;2023-04-25T11:30:28;4.22;;;2.15;;
9761;SDS011;4920;49.594;11.022;2023-04-25T11:32:57;2.73;;;1.87;;
9761;SDS011;4920;49.594;11.022;2023-04-25T11:35:28;4.18;;;1.92;;
9761;SDS011;4920;49.594;11.022;2023-04-25T11:37:56;3.28;;;1.80;;
9761;SDS011;4920;49.594;11.022;2023-04-25T11:40:25;3.95;;;1.73;;
9761;SDS011;4920;49.594;11.022;2023-04-25T11:42:54;2.85;;;1.50;;
9761;SDS011;4920;49.594;11.022;2023-04-25T11:45:23;2.00;;;1.60;;
9761;SDS011;4920;49.594;11.022;2023-04-25T11:47:52;1.97;;;1.50;;
9761;SDS011;4920;49.594;11.022;2023-04-25T11:50:21;4.65;;;1.80;;
9761;SDS011;4920;49.594;11.022;2023-04-25T11:52:51;2.13;;;1.40;;
9761;SDS011;4920;49.594;11.022;2023-04-25T11:55:25;2.97;;;1.67;;
9761;SDS011;4920;49.594;11.022;2023-04-25T11:57:53;2.30;;;1.40;;
9761;SDS011;4920;49.594;11.022;2023-04-25T12:00:23;1.77;;;1.53;;
9761;SDS011;4920;49.594;11.022;2023-04-25T12:02:52;2.37;;;1.57;;
9761;SDS011;4920;49.594;11.022;2023-04-25T12:05:25;1.90;;;1.55;;
9761;SDS011;4920;49.594;11.022;2023-04-25T12:08:13;1.95;;;1.73;;
9761;SDS011;4920;49.594;11.022;2023-04-25T12:10:44;2.97;;;1.60;;
9761;SDS011;4920;49.594;11.022;2023-04-25T12:13:17;2.45;;;1.50;;
9761;SDS011;4920;49.594;11.022;2023-04-25T12:15:49;3.38;;;1.70;;
9761;SDS011;4920;49.594;11.022;2023-04-25T12:18:22;1.63;;;1.45;;
9761;SDS011;4920;49.594;11.022;2023-04-25T12:20:52;2.17;;;1.58;;
9761;SDS011;4920;49.594;11.022;2023-04-25T12:23:26;2.97;;;1.60;;
9761;SDS011;4920;49.594;11.022;2023-04-25T12:25:55;2.00;;;1.63;;
9761;SDS011;4920;49.594;11.022;2023-04-25T12:28:25;2.43;;;1.70;;
9761;SDS011;4920;49.594;11.022;2023-04-25T12:30:55;1.98;;;1.48;;
9761;SDS011;4920;49.594;11.022;2023-04-25T12:33:26;2.07;;;1.60;;
9761;SDS011;4920;49.594;11.022;2023-04-25T12:35:56;2.73;;;1.90;;
9761;SDS011;4920;49.594;11.022;2023-04-25T12:38:27;2.47;;;1.87;;
9761;SDS011;4920;49.594;11.022;2023-04-25T12:40:57;7.03;;;1.80;;
9761;SDS011;4920;49.594;11.022;2023-04-25T12:43:32;2.83;;;1.60;;
9761;SDS011;4920;49.594;11.022;2023-04-25T12:46:01;2.00;;;1.73;;
9761;SDS011;4920;49.594;11.022;2023-04-25T12:48:30;2.67;;;1.80;;
9761;SDS011;4920;49.594;11.022;2023-04-25T12:50:58;4.27;;;1.80;;
9761;SDS011;4920;49.594;11.022;2023-04-25T12:53:29;2.83;;;2.00;;
9761;SDS011;4920;49.594;11.022;2023-04-25T12:56:00;3.40;;;1.80;;
9761;SDS011;4920;49.594;11.022;2023-04-25T12:58:29;2.78;;;1.98;;
9761;SDS011;4920;49.594;11.022;2023-04-25T13:00:58;2.05;;;1.85;;
9761;SDS011;4920;49.594;11.022;2023-04-25T13:03:27;1.90;;;1.70;;
9761;SDS011;4920;49.594;11.022;2023-04-25T13:05:56;2.20;;;1.73;;
9761;SDS011;4920;49.594;11.022;2023-04-25T13:08:24;3.33;;;1.90;;
9761;SDS011;4920;49.594;11.022;2023-04-25T13:10:54;3.97;;;2.00;;
9761;SDS011;4920;49.594;11.022;2023-04-25T13:13:23;2.80;;;2.10;;
9761;SDS011;4920;49.594;11.022;2023-04-25T13:15:53;2.60;;;2.03;;
9761;SDS011;4920;49.594;11.022;2023-04-25T13:18:22;3.03;;;2.33;;
9761;SDS011;4920;49.594;11.022;2023-04-25T13:20:53;2.90;;;1.87;;
9761;SDS011;4920;49.594;11.022;2023-04-25T13:23:22;2.90;;;2.10;;
9761;SDS011;4920;49.594;11.022;2023-04-25T13:25:51;3.70;;;2.20;;
9761;SDS011;4920;49.594;11.022;2023-04-25T13:28:21;4.37;;;2.17;;
9761;SDS011;4920;49.594;11.022;2023-04-25T13:30:50;2.67;;;1.93;;
9761;SDS011;4920;49.594;11.022;2023-04-25T13:33:19;3.07;;;2.20;;
9761;SDS011;4920;49.594;11.022;2023-04-25T13:35:49;2.73;;;2.17;;
9761;SDS011;4920;49.594;11.022;2023-04-25T13:38:21;2.80;;;2.20;;
9761;SDS011;4920;49.594;11.022;2023-04-25T13:40:49;3.33;;;2.30;;
9761;SDS011;4920;49.594;11.022;2023-04-25T13:43:21;4.10;;;2.33;;
9761;SDS011;4920;49.594;11.022;2023-04-25T13:45:50;3.70;;;2.30;;
9761;SDS011;4920;49.594;11.022;2023-04-25T13:48:18;3.00;;;2.40;;
9761;SDS011;4920;49.594;11.022;2023-04-25T13:50:47;2.93;;;2.10;;
9761;SDS011;4920;49.594;11.022;2023-04-25T13:53:16;3.13;;;2.40;;
9761;SDS011;4920;49.594;11.022;2023-04-25T13:55:45;3.40;;;2.57;;
9761;SDS011;4920;49.594;11.022;2023-04-25T13:58:14;2.30;;;2.10;;
9761;SDS011;4920;49.594;11.022;2023-04-25T14:00:44;4.53;;;2.40;;
9761;SDS011;4920;49.594;11.022;2023-04-25T14:03:13;2.33;;;2.10;;
9761;SDS011;4920;49.594;11.022;2023-04-25T14:05:42;3.63;;;2.50;;
9761;SDS011;4920;49.594;11.022;2023-04-25T14:08:10;3.83;;;2.67;;
9761;SDS011;4920;49.594;11.022;2023-04-25T14:10:39;3.60;;;2.70;;
9761;SDS011;4920;49.594;11.022;2023-04-25T14:13:08;3.37;;;2.57;;
9761;SDS011;4920;49.594;11.022;2023-04-25T14:15:38;4.33;;;2.67;;
9761;SDS011;4920;49.594;11.022;2023-04-25T14:18:09;5.43;;;2.60;;
9761;SDS011;4920;49.594;11.022;2023-04-25T14:20:37;4.37;;;2.60;;
9761;SDS011;4920;49.594;11.022;2023-04-25T14:23:06;4.57;;;2.67;;
9761;SDS011;4920;49.594;11.022;2023-04-25T14:25:35;3.50;;;2.40;;
9761;SDS011;4920;49.594;11.022;2023-04-25T14:28:04;3.00;;;2.60;;
9761;SDS011;4920;49.594;11.022;2023-04-25T14:30:33;3.13;;;2.47;;
9761;SDS011;4920;49.594;11.022;2023-04-25T14:33:02;4.30;;;2.90;;
9761;SDS011;4920;49.594;11.022;2023-04-25T14:35:32;5.70;;;2.70;;
9761;SDS011;4920;49.594;11.022;2023-04-25T14:38:01;4.83;;;2.87;;
9761;SDS011;4920;49.594;11.022;2023-04-25T14:40:29;3.80;;;2.63;;
9761;SDS011;4920;49.594;11.022;2023-04-25T14:42:58;4.00;;;2.80;;
9761;SDS011;4920;49.594;11.022;2023-04-25T14:45:27;4.50;;;2.50;;
9761;SDS011;4920;49.594;11.022;2023-04-25T14:47:56;3.30;;;2.53;;
9761;SDS011;4920;49.594;11.022;2023-04-25T14:50:25;3.27;;;2.50;;
9761;SDS011;4920;49.594;11.022;2023-04-25T14:52:55;3.60;;;2.20;;
9761;SDS011;4920;49.594;11.022;2023-04-25T14:55:27;2.83;;;2.30;;
9761;SDS011;4920;49.594;11.022;2023-04-25T14:57:56;3.40;;;2.53;;
9761;SDS011;4920;49.594;11.022;2023-04-25T15:00:25;3.83;;;2.70;;
9761;SDS011;4920;49.594;11.022;2023-04-25T15:02:53;5.83;;;2.40;;
9761;SDS011;4920;49.594;11.022;2023-04-25T15:05:23;3.93;;;2.47;;
9761;SDS011;4920;49.594;11.022;2023-04-25T15:07:54;3.93;;;2.60;;
9761;SDS011;4920;49.594;11.022;2023-04-25T15:10:23;3.37;;;2.50;;
9761;SDS011;4920;49.594;11.022;2023-04-25T15:12:52;3.30;;;2.20;;
9761;SDS011;4920;49.594;11.022;2023-04-25T15:15:21;3.67;;;2.50;;
9761;SDS011;4920;49.594;11.022;2023-04-25T15:17:52;7.57;;;2.60;;
9761;SDS011;4920;49.594;11.022;2023-04-25T15:20:24;4.80;;;2.73;;
9761;SDS011;4920;49.594;11.022;2023-04-25T15:22:55;3.27;;;2.57;;
9761;SDS011;4920;49.594;11.022;2023-04-25T15:25:24;3.80;;;2.80;;
9761;SDS011;4920;49.594;11.022;2023-04-25T15:27:55;3.93;;;3.03;;
9761;SDS011;4920;49.594;11.022;2023-04-25T15:30:23;4.63;;;3.10;;
9761;SDS011;4920;49.594;11.022;2023-04-25T15:32:52;5.33;;;2.73;;
9761;SDS011;4920;49.594;11.022;2023-04-25T15:35:21;3.97;;;2.87;;
9761;SDS011;4920;49.594;11.022;2023-04-25T15:37:50;4.13;;;2.73;;
9761;SDS011;4920;49.594;11.022;2023-04-25T15:40:20;3.93;;;3.00;;
9761;SDS011;4920;49.594;11.022;2023-04-25T15:42:50;4.17;;;2.80;;
9761;SDS011;4920;49.594;11.022;2023-04-25T15:45:19;6.17;;;3.23;;